createdAt,value
2023-07-24T00:00:26.418Z,25.800
2023-07-24T00:01:27.472Z,25.800
2023-07-24T00:02:30.966Z,25.800
2023-07-24T00:03:26.958Z,25.800
2023-07-24T00:04:20.886Z,25.800
2023-07-24T00:05:30.623Z,25.700
2023-07-24T00:06:28.778Z,25.800
2023-07-24T00:07:23.653Z,25.800
2023-07-24T00:08:33.178Z,25.800
2023-07-24T00:09:26.987Z,25.800
2023-07-24T00:10:24.803Z,25.800
2023-07-24T00:11:21.881Z,25.800
2023-07-24T00:12:31.661Z,25.800
2023-07-24T00:13:22.276Z,25.800
2023-07-24T00:14:23.749Z,25.700
2023-07-24T00:15:34.176Z,25.700
2023-07-24T00:16:29.000Z,25.700
2023-07-24T00:18:20.868Z,25.700
2023-07-24T00:19:30.914Z,25.700
2023-07-24T00:20:25.838Z,25.650
2023-07-24T00:21:22.744Z,25.600
2023-07-24T00:22:32.903Z,25.700
2023-07-24T00:23:34.383Z,25.700
2023-07-24T00:24:31.201Z,25.700
2023-07-24T00:26:33.128Z,25.700
2023-07-24T00:27:28.453Z,25.700
2023-07-24T00:28:23.657Z,25.700
2023-07-24T00:29:33.926Z,25.700
2023-07-24T00:30:28.917Z,25.700
2023-07-24T00:31:24.246Z,25.700
2023-07-24T00:32:24.644Z,25.700
2023-07-24T00:34:29.848Z,25.700
2023-07-24T00:35:23.130Z,25.650
2023-07-24T00:36:33.933Z,25.600
2023-07-24T00:37:28.939Z,25.600
2023-07-24T00:38:26.112Z,25.600
2023-07-24T00:39:21.206Z,25.600
2023-07-24T00:40:23.152Z,25.600
2023-07-24T00:41:28.416Z,25.600
2023-07-24T00:42:21.618Z,25.600
2023-07-24T00:43:33.828Z,25.600
2023-07-24T00:44:28.732Z,25.600
2023-07-24T00:45:30.056Z,25.600
2023-07-24T00:46:21.055Z,25.600
2023-07-24T00:47:24.641Z,25.600
2023-07-24T00:48:23.465Z,25.600
2023-07-24T00:49:22.932Z,25.600
2023-07-24T00:50:32.590Z,25.600
2023-07-24T00:52:24.827Z,25.600
2023-07-24T00:53:22.859Z,25.600
2023-07-24T00:54:34.245Z,25.600
2023-07-24T00:55:22.661Z,25.600
2023-07-24T00:56:25.526Z,25.600
2023-07-24T00:57:37.686Z,25.600
2023-07-24T00:58:30.218Z,25.600
2023-07-24T00:59:24.709Z,25.500
2023-07-24T01:00:25.610Z,25.500
2023-07-24T01:07:24.158Z,25.500
2023-07-24T01:08:13.289Z,25.600
2023-07-24T01:08:44.766Z,25.600
2023-07-24T01:09:44.101Z,25.600
2023-07-24T01:12:31.962Z,25.600
2023-07-24T01:13:27.167Z,25.700
2023-07-24T01:14:21.040Z,25.700
2023-07-24T01:20:27.272Z,25.500
2023-07-24T01:21:21.075Z,25.450
2023-07-24T01:22:39.404Z,25.400
2023-07-24T01:23:45.122Z,25.300
2023-07-24T01:24:27.007Z,25.100
2023-07-24T01:25:26.210Z,25.000
2023-07-24T01:26:21.149Z,24.700
2023-07-24T01:27:25.157Z,24.500
2023-07-24T01:28:20.898Z,24.400
2023-07-24T01:29:20.035Z,24.200
2023-07-24T01:30:30.936Z,24.200
2023-07-24T01:31:24.534Z,24.200
2023-07-24T01:32:32.956Z,24.100
2023-07-24T01:34:25.248Z,23.900
2023-07-24T01:35:21.379Z,23.900
2023-07-24T01:36:24.590Z,23.850
2023-07-24T01:37:29.076Z,23.800
2023-07-24T01:38:24.920Z,23.600
2023-07-24T01:39:38.554Z,23.600
2023-07-24T01:41:24.833Z,23.500
2023-07-24T01:42:21.128Z,23.600
2023-07-24T01:43:31.447Z,23.550
2023-07-24T01:44:28.532Z,23.500
2023-07-24T01:45:23.291Z,23.500
2023-07-24T01:46:33.664Z,23.400
2023-07-24T01:47:34.951Z,23.300
2023-07-24T01:49:23.237Z,23.300
2023-07-24T01:50:32.102Z,23.200
2023-07-24T01:51:26.880Z,23.100
2023-07-24T01:52:24.358Z,22.900
2023-07-24T01:53:33.584Z,22.900
2023-07-24T01:54:28.866Z,22.900
2023-07-24T01:55:29.470Z,22.800
2023-07-24T01:57:32.022Z,22.800
2023-07-24T01:58:26.848Z,22.800
2023-07-24T01:59:25.465Z,22.800
2023-07-24T02:00:35.511Z,22.800
2023-07-24T02:01:42.795Z,22.800
2023-07-24T02:02:24.839Z,22.800
2023-07-24T02:03:20.873Z,22.700
2023-07-24T02:04:23.339Z,22.700
2023-07-24T02:05:29.653Z,22.700
2023-07-24T02:06:24.871Z,22.700
2023-07-24T02:08:29.597Z,22.800
2023-07-24T02:09:25.318Z,22.700
2023-07-24T02:10:20.965Z,22.700
2023-07-24T02:11:24.011Z,22.600
2023-07-24T02:12:27.159Z,22.600
2023-07-24T02:13:22.732Z,22.500
2023-07-24T02:14:33.095Z,22.500
2023-07-24T02:15:31.635Z,22.500
2023-07-24T02:16:19.928Z,22.500
2023-07-24T02:17:22.675Z,22.500
2023-07-24T02:18:33.799Z,22.500
2023-07-24T02:19:21.613Z,22.500
2023-07-24T02:20:19.559Z,22.500
2023-07-24T02:21:34.190Z,22.400
2023-07-24T02:22:38.269Z,22.400
2023-07-24T02:23:26.415Z,22.400
2023-07-24T02:24:21.655Z,22.300
2023-07-24T02:25:31.838Z,22.300
2023-07-24T02:26:32.254Z,22.300
2023-07-24T02:27:23.155Z,22.300
2023-07-24T02:28:33.748Z,22.300
2023-07-24T02:29:29.735Z,22.300
2023-07-24T02:30:26.064Z,22.300
2023-07-24T02:31:21.802Z,22.200
2023-07-24T02:32:30.692Z,22.200
2023-07-24T02:33:31.256Z,22.200
2023-07-24T02:35:34.455Z,22.100
2023-07-24T02:36:30.097Z,22.100
2023-07-24T02:37:22.696Z,22.100
2023-07-24T02:38:21.051Z,22.100
2023-07-24T02:39:30.922Z,22.000
2023-07-24T02:40:27.962Z,22.000
2023-07-24T02:41:26.134Z,22.000
2023-07-24T02:43:33.371Z,22.000
2023-07-24T02:44:24.868Z,22.100
2023-07-24T02:45:22.432Z,22.000
2023-07-24T02:46:32.787Z,22.000
2023-07-24T02:47:29.402Z,22.000
2023-07-24T02:48:22.839Z,21.900
2023-07-24T02:49:25.757Z,21.900
2023-07-24T02:50:29.219Z,21.900
2023-07-24T02:51:26.013Z,21.900
2023-07-24T02:52:20.974Z,21.900
2023-07-24T02:53:31.181Z,21.900
2023-07-24T02:54:25.208Z,21.900
2023-07-24T02:55:22.880Z,21.900
2023-07-24T02:56:26.890Z,21.900
2023-07-24T02:57:21.567Z,21.900
2023-07-24T02:58:27.140Z,21.900
2023-07-24T02:59:20.821Z,21.850
2023-07-24T03:00:33.024Z,21.800
2023-07-24T03:01:27.141Z,21.800
2023-07-24T03:02:24.309Z,21.800
2023-07-24T03:03:20.437Z,21.800
2023-07-24T03:04:23.798Z,21.800
2023-07-24T03:05:21.408Z,21.800
2023-07-24T03:06:20.686Z,21.800
2023-07-24T03:07:30.913Z,21.800
2023-07-24T03:08:29.387Z,21.800
2023-07-24T03:09:23.127Z,21.800
2023-07-24T03:10:22.946Z,21.800
2023-07-24T03:11:31.919Z,21.700
2023-07-24T03:13:22.989Z,21.700
2023-07-24T03:14:31.947Z,21.700
2023-07-24T03:15:27.007Z,21.700
2023-07-24T03:16:23.079Z,21.600
2023-07-24T03:17:27.347Z,21.600
2023-07-24T03:18:33.669Z,21.600
2023-07-24T03:20:22.602Z,21.600
2023-07-24T03:21:32.707Z,21.600
2023-07-24T03:22:22.119Z,21.600
2023-07-24T03:23:25.109Z,21.600
2023-07-24T03:24:29.131Z,21.600
2023-07-24T03:25:35.645Z,21.600
2023-07-24T03:27:21.705Z,21.600
2023-07-24T03:53:29.032Z,21.400
2023-07-24T03:54:26.851Z,21.400
2023-07-24T03:55:23.541Z,21.400
2023-07-24T03:56:31.292Z,21.400
2023-07-24T03:59:33.039Z,21.300
2023-07-24T04:00:32.049Z,21.350
2023-07-24T04:01:25.188Z,21.300
2023-07-24T04:02:22.338Z,21.300
2023-07-24T04:03:32.376Z,21.300
2023-07-24T04:04:28.564Z,21.300
2023-07-24T04:07:25.604Z,21.200
2023-07-24T04:08:21.943Z,21.200
2023-07-24T04:09:21.323Z,21.200
2023-07-24T04:10:30.874Z,21.200
2023-07-24T04:11:32.178Z,21.100
2023-07-24T04:14:30.001Z,21.100
2023-07-24T04:15:24.918Z,21.100
2023-07-24T04:16:21.148Z,21.100
2023-07-24T04:17:31.685Z,21.100
2023-07-24T04:18:21.801Z,21.100
2023-07-24T04:19:23.178Z,21.100
2023-07-24T04:22:26.475Z,21.100
2023-07-24T04:23:21.578Z,21.100
2023-07-24T04:24:27.377Z,21.100
2023-07-24T04:25:29.579Z,21.100
2023-07-24T04:26:24.135Z,21.100
2023-07-24T04:27:28.622Z,21.000
2023-07-24T04:29:24.932Z,21.000
2023-07-24T04:30:21.003Z,21.000
2023-07-24T04:31:31.902Z,21.000
2023-07-24T04:32:31.852Z,21.000
2023-07-24T04:33:25.024Z,21.000
2023-07-24T04:34:34.325Z,20.900
2023-07-24T04:37:20.964Z,20.900
2023-07-24T04:38:31.208Z,20.900
2023-07-24T04:39:30.735Z,20.900
2023-07-24T04:40:24.331Z,20.900
2023-07-24T04:41:29.485Z,20.900
2023-07-24T04:42:30.946Z,20.900
2023-07-24T04:45:31.532Z,20.900
2023-07-24T04:46:21.641Z,20.900
2023-07-24T04:47:23.346Z,20.900
2023-07-24T04:48:33.778Z,20.900
2023-07-24T04:49:32.236Z,20.900
2023-07-24T04:52:25.707Z,20.900
2023-07-24T04:53:27.612Z,20.900
2023-07-24T04:54:23.480Z,20.800
2023-07-24T04:55:20.806Z,20.800
2023-07-24T04:56:30.185Z,20.800
2023-07-24T04:57:31.853Z,20.800
2023-07-24T05:00:27.398Z,20.800
2023-07-24T05:01:24.685Z,20.800
2023-07-24T05:02:23.931Z,20.800
2023-07-24T05:03:21.425Z,20.800
2023-07-24T05:04:27.400Z,20.800
2023-07-24T05:05:21.247Z,20.800
2023-07-24T05:06:22.564Z,20.800
2023-07-24T05:07:27.505Z,20.800
2023-07-24T05:08:23.053Z,20.800
2023-07-24T05:09:28.278Z,20.800
2023-07-24T05:10:31.692Z,20.800
2023-07-24T05:11:25.426Z,20.800
2023-07-24T05:12:22.569Z,20.800
2023-07-24T05:15:22.935Z,20.800
2023-07-24T05:16:33.556Z,20.800
2023-07-24T05:17:32.003Z,20.800
2023-07-24T05:18:24.895Z,20.800
2023-07-24T05:19:22.295Z,20.800
2023-07-24T05:20:31.221Z,20.800
2023-07-24T05:22:22.892Z,20.700
2023-07-24T05:23:33.326Z,20.700
2023-07-24T05:24:21.058Z,20.700
2023-07-24T05:25:25.387Z,20.700
2023-07-24T05:26:23.784Z,20.700
2023-07-24T05:27:33.740Z,20.700
2023-07-24T05:30:35.716Z,20.800
2023-07-24T05:31:24.288Z,20.800
2023-07-24T05:32:26.689Z,20.800
2023-07-24T05:33:21.003Z,20.800
2023-07-24T05:34:36.329Z,20.800
2023-07-24T05:38:27.995Z,20.800
2023-07-24T05:39:26.027Z,20.900
2023-07-24T05:40:24.005Z,20.800
2023-07-24T05:41:34.408Z,20.800
2023-07-24T05:42:20.758Z,20.800
2023-07-24T05:43:28.430Z,20.900
2023-07-24T05:45:30.625Z,20.800
2023-07-24T05:46:25.208Z,20.800
2023-07-24T05:47:22.890Z,20.800
2023-07-24T05:48:23.729Z,20.800
2023-07-24T05:49:27.220Z,20.900
2023-07-24T05:50:24.282Z,20.900
2023-07-24T05:53:26.154Z,20.900
2023-07-24T05:54:22.359Z,20.900
2023-07-24T05:55:32.290Z,20.900
2023-07-24T05:56:28.043Z,20.900
2023-07-24T05:57:23.077Z,20.900
2023-07-24T05:58:32.897Z,20.900
2023-07-24T06:00:22.736Z,21.000
2023-07-24T06:01:21.166Z,21.000
2023-07-24T06:02:31.340Z,21.000
2023-07-24T06:03:30.221Z,21.000
2023-07-24T06:04:23.194Z,21.000
2023-07-24T06:05:26.375Z,21.000
2023-07-24T06:06:21.509Z,21.000
2023-07-24T06:07:24.926Z,21.000
2023-07-24T06:08:23.993Z,21.100
2023-07-24T06:09:32.586Z,21.100
2023-07-24T06:10:28.970Z,21.100
2023-07-24T06:11:23.487Z,21.200
2023-07-24T06:12:34.740Z,21.200
2023-07-24T06:13:25.590Z,21.200
2023-07-24T06:15:20.991Z,21.200
2023-07-24T06:16:23.073Z,21.200
2023-07-24T06:17:27.343Z,21.200
2023-07-24T06:18:22.887Z,21.200
2023-07-24T06:19:33.302Z,21.200
2023-07-24T06:20:35.416Z,21.200
2023-07-24T06:23:31.626Z,21.200
2023-07-24T06:24:27.333Z,21.100
2023-07-24T06:25:23.344Z,21.100
2023-07-24T06:26:34.330Z,21.100
2023-07-24T06:27:34.824Z,21.100
2023-07-24T06:28:26.824Z,21.100
2023-07-24T06:31:27.203Z,21.100
2023-07-24T06:32:24.634Z,21.100
2023-07-24T06:33:23.113Z,21.100
2023-07-24T06:34:37.516Z,21.100
2023-07-24T06:35:26.749Z,21.100
2023-07-24T06:36:23.367Z,21.100
2023-07-24T06:37:23.078Z,21.100
2023-07-24T06:38:30.442Z,21.200
2023-07-24T06:39:25.041Z,21.100
2023-07-24T06:40:34.110Z,21.100
2023-07-24T06:41:47.665Z,21.100
2023-07-24T06:43:22.396Z,21.000
2023-07-24T06:44:20.693Z,21.000
2023-07-24T06:45:30.831Z,21.000
2023-07-24T06:47:23.863Z,21.000
2023-07-24T06:48:46.837Z,21.000
2023-07-24T06:49:27.283Z,21.000
2023-07-24T06:50:21.107Z,21.000
2023-07-24T06:51:26.209Z,21.000
2023-07-24T06:53:23.126Z,21.000
2023-07-24T06:54:26.433Z,21.000
2023-07-24T06:55:45.570Z,21.000
2023-07-24T06:56:26.557Z,21.000
2023-07-24T06:57:20.923Z,21.000
2023-07-24T06:58:20.787Z,21.100
2023-07-24T06:59:23.534Z,21.100
2023-07-24T07:00:19.607Z,21.100
2023-07-24T07:01:23.095Z,21.100
2023-07-24T07:02:36.196Z,21.100
2023-07-24T07:03:24.899Z,21.100
2023-07-24T07:04:21.475Z,21.100
2023-07-24T07:05:32.857Z,21.100
2023-07-24T07:06:28.889Z,21.200
2023-07-24T07:09:30.869Z,21.200
2023-07-24T07:10:26.843Z,21.200
2023-07-24T07:11:20.984Z,21.200
2023-07-24T07:12:26.524Z,21.200
2023-07-24T07:13:36.366Z,21.300
2023-07-24T07:15:20.469Z,21.300
2023-07-24T07:16:32.924Z,21.200
2023-07-24T07:17:25.146Z,21.300
2023-07-24T07:18:22.717Z,21.250
2023-07-24T07:19:33.773Z,21.200
2023-07-24T07:20:27.157Z,21.200
2023-07-24T07:21:28.221Z,21.200
2023-07-24T07:22:19.564Z,21.200
2023-07-24T07:23:24.038Z,21.200
2023-07-24T07:24:26.247Z,21.200
2023-07-24T07:25:21.298Z,21.200
2023-07-24T07:26:31.554Z,21.200
2023-07-24T07:27:28.734Z,21.200
2023-07-24T07:28:23.391Z,21.200
2023-07-24T07:29:24.880Z,21.200
2023-07-24T07:30:21.769Z,21.200
2023-07-24T07:31:25.177Z,21.100
2023-07-24T07:32:21.196Z,21.100
2023-07-24T07:33:32.903Z,21.100
2023-07-24T07:34:21.844Z,21.100
2023-07-24T07:35:27.420Z,21.100
2023-07-24T07:36:28.036Z,21.100
2023-07-24T07:37:20.599Z,21.100
2023-07-24T07:38:26.697Z,21.100
2023-07-24T07:39:21.082Z,21.100
2023-07-24T07:40:32.786Z,21.100
2023-07-24T07:41:31.899Z,21.100
2023-07-24T07:42:23.137Z,21.000
2023-07-24T07:43:33.346Z,21.100
2023-07-24T07:44:26.780Z,21.000
2023-07-24T07:45:25.438Z,21.000
2023-07-24T07:46:22.657Z,21.000
2023-07-24T07:47:31.451Z,21.000
2023-07-24T07:48:30.009Z,21.000
2023-07-24T07:49:24.610Z,21.000
2023-07-24T07:50:37.796Z,21.000
2023-07-24T07:51:28.936Z,21.000
2023-07-24T07:52:21.928Z,21.000
2023-07-24T07:53:21.096Z,21.000
2023-07-24T07:54:31.389Z,21.000
2023-07-24T07:55:32.258Z,21.000
2023-07-24T07:56:22.989Z,21.000
2023-07-24T07:57:21.344Z,21.000
2023-07-24T07:58:34.581Z,21.000
2023-07-24T07:59:25.524Z,21.000
2023-07-24T08:00:23.824Z,21.000
2023-07-24T08:01:33.519Z,21.000
2023-07-24T08:02:28.839Z,20.900
2023-07-24T08:03:26.875Z,20.900
2023-07-24T08:04:35.022Z,20.900
2023-07-24T08:05:29.228Z,20.900
2023-07-24T08:06:27.541Z,20.900
2023-07-24T08:07:22.527Z,20.900
2023-07-24T08:09:31.552Z,20.800
2023-07-24T08:10:26.373Z,20.800
2023-07-24T08:11:33.152Z,20.800
2023-07-24T08:12:32.934Z,20.800
2023-07-24T08:13:25.257Z,20.800
2023-07-24T08:14:21.939Z,20.800
2023-07-24T08:15:20.071Z,20.800
2023-07-24T08:16:27.270Z,20.800
2023-07-24T08:17:25.437Z,20.800
2023-07-24T08:18:34.552Z,20.700
2023-07-24T08:19:30.425Z,20.700
2023-07-24T08:20:28.335Z,20.700
2023-07-24T08:21:21.271Z,20.700
2023-07-24T08:22:23.687Z,20.700
2023-07-24T08:24:23.151Z,20.700
2023-07-24T08:25:32.969Z,20.700
2023-07-24T08:26:33.209Z,20.600
2023-07-24T08:27:25.265Z,20.600
2023-07-24T08:30:21.642Z,20.600
2023-07-24T08:32:33.468Z,20.600
2023-07-24T08:33:45.669Z,20.600
2023-07-24T08:34:27.130Z,20.600
2023-07-24T08:35:21.159Z,20.600
2023-07-24T08:36:32.924Z,20.600
2023-07-24T08:37:33.129Z,20.600
2023-07-24T08:40:31.097Z,20.500
2023-07-24T08:41:26.229Z,20.500
2023-07-24T08:42:22.175Z,20.500
2023-07-24T08:43:35.560Z,20.500
2023-07-24T08:44:31.569Z,20.500
2023-07-24T08:45:24.577Z,20.500
2023-07-24T08:46:23.713Z,20.500
2023-07-24T08:47:29.407Z,20.500
2023-07-24T08:48:29.804Z,20.500
2023-07-24T08:49:21.112Z,20.500
2023-07-24T08:50:31.237Z,20.500
2023-07-24T08:51:30.041Z,20.600
2023-07-24T08:52:35.865Z,20.600
2023-07-24T08:53:26.099Z,20.600
2023-07-24T08:54:30.788Z,20.600
2023-07-24T08:55:27.333Z,20.600
2023-07-24T08:56:20.925Z,20.600
2023-07-24T08:57:24.063Z,20.600
2023-07-24T08:58:31.867Z,20.600
2023-07-24T08:59:23.439Z,20.600
2023-07-24T09:00:22.725Z,20.700
2023-07-24T09:01:22.928Z,20.700
2023-07-24T09:02:25.324Z,20.700
2023-07-24T09:03:21.456Z,20.700
2023-07-24T09:04:31.036Z,20.750
2023-07-24T09:05:31.234Z,20.800
2023-07-24T09:06:24.634Z,20.800
2023-07-24T09:07:29.318Z,20.800
2023-07-24T09:08:23.418Z,20.800
2023-07-24T09:09:20.049Z,20.900
2023-07-24T09:10:21.440Z,20.900
2023-07-24T09:11:35.727Z,20.900
2023-07-24T09:12:27.421Z,21.000
2023-07-24T09:13:26.928Z,21.100
2023-07-24T09:14:35.420Z,21.200
2023-07-24T09:15:25.704Z,21.200
2023-07-24T09:16:26.509Z,21.300
2023-07-24T09:17:21.189Z,21.400
2023-07-24T09:18:32.648Z,21.400
2023-07-24T09:19:26.682Z,21.450
2023-07-24T09:20:32.602Z,21.500
2023-07-24T09:21:34.632Z,21.500
2023-07-24T09:22:29.870Z,21.500
2023-07-24T09:23:22.151Z,21.500
2023-07-24T09:24:21.941Z,21.500
2023-07-24T09:26:25.116Z,21.600
2023-07-24T09:27:24.485Z,21.600
2023-07-24T09:28:19.164Z,21.600
2023-07-24T09:29:31.562Z,21.600
2023-07-24T09:30:26.688Z,21.600
2023-07-24T09:31:21.024Z,21.600
2023-07-24T09:32:31.322Z,21.600
2023-07-24T09:33:30.019Z,21.600
2023-07-24T09:34:23.225Z,21.700
2023-07-24T09:35:21.314Z,21.700
2023-07-24T09:36:31.179Z,21.700
2023-07-24T09:37:20.728Z,21.700
2023-07-24T09:38:23.566Z,21.700
2023-07-24T09:39:24.461Z,21.800
2023-07-24T09:40:29.271Z,21.800
2023-07-24T09:41:23.359Z,21.800
2023-07-24T09:42:18.959Z,21.850
2023-07-24T09:43:39.810Z,21.900
2023-07-24T09:44:27.784Z,22.000
2023-07-24T09:45:23.367Z,22.000
2023-07-24T09:46:29.287Z,22.100
2023-07-24T09:47:52.095Z,22.200
2023-07-24T09:48:43.248Z,22.200
2023-07-24T09:49:20.774Z,22.200
2023-07-24T09:50:32.205Z,22.300
2023-07-24T09:51:26.844Z,22.300
2023-07-24T09:52:21.389Z,22.300
2023-07-24T09:53:26.580Z,22.300
2023-07-24T09:55:23.366Z,22.400
2023-07-24T09:56:19.729Z,22.400
2023-07-24T09:57:43.240Z,22.400
2023-07-24T09:58:26.904Z,22.500
2023-07-24T09:59:21.639Z,22.500
2023-07-24T10:00:26.431Z,22.500
2023-07-24T10:01:21.361Z,22.600
2023-07-24T10:02:24.844Z,22.800
2023-07-24T10:03:19.365Z,22.700
2023-07-24T10:04:30.698Z,22.800
2023-07-24T10:05:25.105Z,22.800
2023-07-24T10:06:21.289Z,22.800
2023-07-24T10:07:30.948Z,22.900
2023-07-24T10:08:23.489Z,22.800
2023-07-24T10:09:30.812Z,22.800
2023-07-24T10:11:29.357Z,22.800
2023-07-24T10:12:26.717Z,22.900
2023-07-24T10:13:22.699Z,22.900
2023-07-24T10:14:30.968Z,22.900
2023-07-24T10:15:32.374Z,23.000
2023-07-24T10:16:24.305Z,23.100
2023-07-24T10:18:27.259Z,23.100
2023-07-24T10:19:26.980Z,23.100
2023-07-24T10:20:22.330Z,23.100
2023-07-24T10:23:24.721Z,23.200
2023-07-24T10:25:21.113Z,23.300
2023-07-24T10:26:26.272Z,23.300
2023-07-24T10:27:21.583Z,23.300
2023-07-24T10:28:31.542Z,23.200
2023-07-24T10:29:29.250Z,23.200
2023-07-24T10:30:34.553Z,23.200
2023-07-24T10:31:26.073Z,23.200
2023-07-24T10:32:24.120Z,23.200
2023-07-24T10:33:25.504Z,23.200
2023-07-24T10:34:21.329Z,23.200
2023-07-24T10:35:31.262Z,23.200
2023-07-24T10:36:31.748Z,23.200
2023-07-24T10:37:23.668Z,23.100
2023-07-24T10:38:20.613Z,23.100
2023-07-24T10:39:31.466Z,23.100
2023-07-24T10:40:24.379Z,23.100
2023-07-24T10:41:21.410Z,23.100
2023-07-24T10:42:21.744Z,23.100
2023-07-24T10:43:31.848Z,23.000
2023-07-24T10:44:23.426Z,23.000
2023-07-24T10:45:18.838Z,23.000
2023-07-24T10:46:24.389Z,23.000
2023-07-24T10:47:25.315Z,23.000
2023-07-24T10:49:25.591Z,23.000
2023-07-24T10:50:31.118Z,22.950
2023-07-24T10:51:23.330Z,22.900
2023-07-24T10:52:21.309Z,22.900
2023-07-24T10:53:19.628Z,22.900
2023-07-24T10:54:19.474Z,22.900
2023-07-24T10:57:23.509Z,22.900
2023-07-24T10:58:25.371Z,22.900
2023-07-24T10:59:19.810Z,22.900
2023-07-24T11:00:23.768Z,22.900
2023-07-24T11:01:25.254Z,22.900
2023-07-24T11:02:21.221Z,22.900
2023-07-24T11:03:21.231Z,22.900
2023-07-24T11:04:31.379Z,22.900
2023-07-24T11:05:23.122Z,22.800
2023-07-24T11:06:20.800Z,22.800
2023-07-24T11:07:26.903Z,22.800
2023-07-24T11:08:20.367Z,22.800
2023-07-24T11:09:21.262Z,22.900
2023-07-24T11:10:25.445Z,22.900
2023-07-24T11:11:20.715Z,22.900
2023-07-24T11:12:24.811Z,22.900
2023-07-24T11:13:19.162Z,22.900
2023-07-24T11:14:25.350Z,22.900
2023-07-24T11:15:26.274Z,22.900
2023-07-24T11:16:21.430Z,22.900
2023-07-24T11:17:31.368Z,22.900
2023-07-24T11:18:24.836Z,22.900
2023-07-24T11:19:22.997Z,22.900
2023-07-24T11:20:20.987Z,22.900
2023-07-24T11:21:34.877Z,22.900
2023-07-24T11:22:25.582Z,22.900
2023-07-24T11:23:24.130Z,23.000
2023-07-24T11:24:21.887Z,23.000
2023-07-24T11:25:29.703Z,23.000
2023-07-24T11:27:18.993Z,23.000
2023-07-24T11:28:31.336Z,23.000
2023-07-24T11:30:22.301Z,23.000
2023-07-24T11:31:34.357Z,23.100
2023-07-24T11:32:30.313Z,23.100
2023-07-24T11:34:20.253Z,23.100
2023-07-24T11:35:32.657Z,23.100
2023-07-24T11:36:21.611Z,23.100
2023-07-24T11:37:21.552Z,23.100
2023-07-24T11:38:32.951Z,23.100
2023-07-24T11:39:22.603Z,23.100
2023-07-24T11:40:19.728Z,23.100
2023-07-24T11:41:20.255Z,23.100
2023-07-24T11:43:30.829Z,23.100
2023-07-24T11:44:21.446Z,23.100
2023-07-24T11:45:33.765Z,23.100
2023-07-24T11:46:32.129Z,23.100
2023-07-24T11:47:19.658Z,23.100
2023-07-24T11:48:19.402Z,23.100
2023-07-24T11:49:44.832Z,23.200
2023-07-24T11:50:26.929Z,23.200
2023-07-24T11:51:21.227Z,23.200
2023-07-24T11:52:32.067Z,23.200
2023-07-24T11:53:23.927Z,23.100
2023-07-24T11:54:28.364Z,23.100
2023-07-24T11:55:21.018Z,23.100
2023-07-24T11:56:22.969Z,23.100
2023-07-24T11:57:25.545Z,23.100
2023-07-24T11:58:22.579Z,23.100
2023-07-24T11:59:27.527Z,23.100
2023-07-24T12:00:32.239Z,23.000
2023-07-24T12:01:23.081Z,23.000
2023-07-24T12:02:20.516Z,23.000
2023-07-24T12:03:26.924Z,22.900
2023-07-24T12:04:25.722Z,22.900
2023-07-24T12:05:25.398Z,22.900
2023-07-24T12:06:33.358Z,22.900
2023-07-24T12:07:31.415Z,22.900
2023-07-24T12:08:23.145Z,22.900
2023-07-24T12:09:21.112Z,22.900
2023-07-24T12:10:23.233Z,22.900
2023-07-24T12:12:20.953Z,22.700
2023-07-24T12:13:31.250Z,22.500
2023-07-24T12:14:30.065Z,22.200
2023-07-24T12:15:23.441Z,22.100
2023-07-24T12:16:20.201Z,22.000
2023-07-24T12:17:22.290Z,22.000
2023-07-24T12:18:26.442Z,22.000
2023-07-24T12:20:31.374Z,21.800
2023-07-24T12:21:22.071Z,21.900
2023-07-24T12:22:23.589Z,21.900
2023-07-24T12:23:19.160Z,22.000
2023-07-24T12:24:27.715Z,22.000
2023-07-24T12:25:27.148Z,22.100
2023-07-24T12:28:27.308Z,22.100
2023-07-24T12:29:23.550Z,22.050
2023-07-24T12:30:23.146Z,22.000
2023-07-24T12:31:45.592Z,21.900
2023-07-24T12:32:25.222Z,21.900
2023-07-24T12:33:21.436Z,21.900
2023-07-24T12:34:21.302Z,21.900
2023-07-24T12:35:30.921Z,21.900
2023-07-24T12:36:23.362Z,21.800
2023-07-24T12:37:21.301Z,21.800
2023-07-24T12:38:22.309Z,21.700
2023-07-24T12:39:26.212Z,21.700
2023-07-24T12:40:21.349Z,21.700
2023-07-24T12:41:27.634Z,21.800
2023-07-24T12:42:30.864Z,21.800
2023-07-24T12:43:24.842Z,21.800
2023-07-24T12:44:22.298Z,21.850
2023-07-24T12:45:20.688Z,22.000
2023-07-24T12:46:25.165Z,22.000
2023-07-24T12:47:26.309Z,22.100
2023-07-24T12:48:31.397Z,22.100
2023-07-24T12:49:21.118Z,22.100
2023-07-24T12:50:23.140Z,22.200
2023-07-24T12:51:19.523Z,22.300
2023-07-24T12:52:25.126Z,22.300
2023-07-24T12:53:28.186Z,22.400
2023-07-24T12:54:25.025Z,22.400
2023-07-24T12:55:24.616Z,22.500
2023-07-24T12:56:27.552Z,22.500
2023-07-24T12:57:21.040Z,22.600
2023-07-24T12:58:19.105Z,22.600
2023-07-24T12:59:31.441Z,22.600
2023-07-24T13:00:25.579Z,22.750
2023-07-24T13:01:21.125Z,22.800
2023-07-24T13:02:24.564Z,22.800
2023-07-24T13:03:21.791Z,22.900
2023-07-24T13:04:23.553Z,22.900
2023-07-24T13:06:21.602Z,22.900
2023-07-24T13:07:26.252Z,22.800
2023-07-24T13:08:22.394Z,22.800
2023-07-24T13:09:33.511Z,22.800
2023-07-24T13:10:21.598Z,22.800
2023-07-24T13:11:23.579Z,22.800
2023-07-24T13:12:20.604Z,22.800
2023-07-24T13:14:19.567Z,22.800
2023-07-24T13:15:23.061Z,22.800
2023-07-24T13:16:33.628Z,22.900
2023-07-24T13:17:30.446Z,22.900
2023-07-24T13:18:29.137Z,22.900
2023-07-24T13:19:20.470Z,22.900
2023-07-24T13:20:31.425Z,22.900
2023-07-24T13:21:25.928Z,22.900
2023-07-24T13:22:21.448Z,22.900
2023-07-24T13:23:25.017Z,22.900
2023-07-24T13:24:32.625Z,22.900
2023-07-24T13:25:23.377Z,23.000
2023-07-24T13:26:19.333Z,23.000
2023-07-24T13:27:21.816Z,23.000
2023-07-24T13:28:25.845Z,23.000
2023-07-24T13:29:23.762Z,23.100
2023-07-24T13:30:31.934Z,23.100
2023-07-24T13:31:29.551Z,23.100
2023-07-24T13:32:28.084Z,23.200
2023-07-24T13:33:35.652Z,23.200
2023-07-24T13:34:21.841Z,23.300
2023-07-24T13:35:19.412Z,23.300
2023-07-24T13:36:22.104Z,23.300
2023-07-24T13:37:32.872Z,23.200
2023-07-24T13:38:26.943Z,23.200
2023-07-24T13:39:25.231Z,23.200
2023-07-24T13:40:19.384Z,23.200
2023-07-24T13:41:31.039Z,23.100
2023-07-24T13:43:23.106Z,23.100
2023-07-24T13:44:31.383Z,23.200
2023-07-24T13:45:28.923Z,23.250
2023-07-24T13:46:23.389Z,23.300
2023-07-24T13:47:19.149Z,23.300
2023-07-24T13:48:21.451Z,23.300
2023-07-24T13:49:31.003Z,23.300
2023-07-24T13:51:23.293Z,23.400
2023-07-24T13:52:28.436Z,23.400
2023-07-24T13:53:23.057Z,23.400
2023-07-24T13:54:19.428Z,23.500
2023-07-24T13:55:26.814Z,23.500
2023-07-24T13:56:25.384Z,23.500
2023-07-24T13:57:21.157Z,23.500
2023-07-24T13:59:30.670Z,23.600
2023-07-24T14:00:25.116Z,23.600
2023-07-24T14:01:19.615Z,23.600
2023-07-24T14:02:29.279Z,23.600
2023-07-24T14:03:22.574Z,23.700
2023-07-24T14:04:21.704Z,23.700
2023-07-24T14:06:30.354Z,23.800
2023-07-24T14:07:24.513Z,23.800
2023-07-24T14:08:21.577Z,23.800
2023-07-24T14:09:33.617Z,23.800
2023-07-24T14:10:25.485Z,23.800
2023-07-24T14:11:23.732Z,23.800
2023-07-24T14:12:27.147Z,23.900
2023-07-24T14:13:27.906Z,23.900
2023-07-24T14:14:25.340Z,23.900
2023-07-24T14:15:19.409Z,23.950
2023-07-24T14:16:31.903Z,24.000
2023-07-24T14:17:25.353Z,24.000
2023-07-24T14:18:23.432Z,24.100
2023-07-24T14:19:21.313Z,24.100
2023-07-24T14:20:25.236Z,24.100
2023-07-24T14:21:23.313Z,24.100
2023-07-24T14:22:19.389Z,24.100
2023-07-24T14:23:30.542Z,24.200
2023-07-24T14:24:25.909Z,24.200
2023-07-24T14:25:21.577Z,24.300
2023-07-24T14:26:20.855Z,24.300
2023-07-24T14:27:43.622Z,24.400
2023-07-24T14:29:19.283Z,24.400
2023-07-24T14:30:30.582Z,24.400
2023-07-24T14:31:26.902Z,24.450